sensor_id;sensor_type;location;lat;lon;timestamp;P1;durP1;ratioP1;P2;durP2;ratioP2
12433;SDS011;6281;49.038;8.372;2024-02-16T00:00:23;6.20;;;4.63;;
12433;SDS011;6281;49.038;8.372;2024-02-16T00:02:50;11.10;;;4.80;;
12433;SDS011;6281;49.038;8.372;2024-02-16T00:05:18;7.90;;;4.77;;
12433;SDS011;6281;49.038;8.372;2024-02-16T00:07:45;8.77;;;4.60;;
12433;SDS011;6281;49.038;8.372;2024-02-16T00:10:13;8.83;;;4.83;;
12433;SDS011;6281;49.038;8.372;2024-02-16T00:12:43;7.40;;;4.27;;
12433;SDS011;6281;49.038;8.372;2024-02-16T00:15:10;5.40;;;4.43;;
12433;SDS011;6281;49.038;8.372;2024-02-16T00:17:37;7.70;;;4.40;;
12433;SDS011;6281;49.038;8.372;2024-02-16T00:20:05;7.43;;;4.80;;
12433;SDS011;6281;49.038;8.372;2024-02-16T00:22:33;11.90;;;5.37;;
12433;SDS011;6281;49.038;8.372;2024-02-16T00:25:00;8.10;;;4.73;;
12433;SDS011;6281;49.038;8.372;2024-02-16T00:27:30;7.73;;;4.73;;
12433;SDS011;6281;49.038;8.372;2024-02-16T00:29:56;11.37;;;4.57;;
12433;SDS011;6281;49.038;8.372;2024-02-16T00:32:23;6.90;;;4.50;;
12433;SDS011;6281;49.038;8.372;2024-02-16T00:34:55;5.77;;;4.43;;
12433;SDS011;6281;49.038;8.372;2024-02-16T00:37:23;10.07;;;4.60;;
12433;SDS011;6281;49.038;8.372;2024-02-16T00:39:50;6.37;;;4.30;;
12433;SDS011;6281;49.038;8.372;2024-02-16T00:42:19;7.60;;;4.23;;
12433;SDS011;6281;49.038;8.372;2024-02-16T00:44:49;6.23;;;4.10;;
12433;SDS011;6281;49.038;8.372;2024-02-16T00:47:16;8.17;;;4.33;;
12433;SDS011;6281;49.038;8.372;2024-02-16T00:49:43;7.93;;;4.50;;
12433;SDS011;6281;49.038;8.372;2024-02-16T00:52:10;8.37;;;4.33;;
12433;SDS011;6281;49.038;8.372;2024-02-16T00:54:37;6.23;;;4.77;;
12433;SDS011;6281;49.038;8.372;2024-02-16T00:57:04;7.17;;;4.47;;
12433;SDS011;6281;49.038;8.372;2024-02-16T00:59:31;7.77;;;4.70;;
12433;SDS011;6281;49.038;8.372;2024-02-16T01:02:00;7.77;;;4.47;;
12433;SDS011;6281;49.038;8.372;2024-02-16T01:04:27;7.73;;;5.00;;
12433;SDS011;6281;49.038;8.372;2024-02-16T01:06:55;9.23;;;5.07;;
12433;SDS011;6281;49.038;8.372;2024-02-16T01:09:21;6.67;;;4.37;;
12433;SDS011;6281;49.038;8.372;2024-02-16T01:11:48;7.20;;;4.33;;
12433;SDS011;6281;49.038;8.372;2024-02-16T01:14:15;7.20;;;5.17;;
12433;SDS011;6281;49.038;8.372;2024-02-16T01:16:42;9.07;;;5.07;;
12433;SDS011;6281;49.038;8.372;2024-02-16T01:19:11;7.63;;;4.13;;
12433;SDS011;6281;49.038;8.372;2024-02-16T01:21:38;6.87;;;4.23;;
12433;SDS011;6281;49.038;8.372;2024-02-16T01:24:06;7.57;;;4.23;;
12433;SDS011;6281;49.038;8.372;2024-02-16T01:26:33;8.63;;;4.70;;
12433;SDS011;6281;49.038;8.372;2024-02-16T01:29:00;9.63;;;4.60;;
12433;SDS011;6281;49.038;8.372;2024-02-16T01:31:27;8.17;;;5.27;;
12433;SDS011;6281;49.038;8.372;2024-02-16T01:33:54;5.30;;;4.23;;
12433;SDS011;6281;49.038;8.372;2024-02-16T01:36:23;9.57;;;4.27;;
12433;SDS011;6281;49.038;8.372;2024-02-16T01:38:50;9.80;;;4.57;;
12433;SDS011;6281;49.038;8.372;2024-02-16T01:41:17;8.73;;;4.80;;
12433;SDS011;6281;49.038;8.372;2024-02-16T01:43:44;7.90;;;4.20;;
12433;SDS011;6281;49.038;8.372;2024-02-16T01:46:11;6.50;;;4.20;;
12433;SDS011;6281;49.038;8.372;2024-02-16T01:48:38;5.93;;;3.90;;
12433;SDS011;6281;49.038;8.372;2024-02-16T01:51:06;10.00;;;4.30;;
12433;SDS011;6281;49.038;8.372;2024-02-16T01:53:36;7.43;;;4.40;;
12433;SDS011;6281;49.038;8.372;2024-02-16T01:56:04;7.57;;;3.90;;
12433;SDS011;6281;49.038;8.372;2024-02-16T01:58:31;6.10;;;3.90;;
12433;SDS011;6281;49.038;8.372;2024-02-16T02:00:58;6.90;;;4.07;;
12433;SDS011;6281;49.038;8.372;2024-02-16T02:03:25;9.20;;;4.13;;
12433;SDS011;6281;49.038;8.372;2024-02-16T02:05:52;8.50;;;4.00;;
12433;SDS011;6281;49.038;8.372;2024-02-16T02:08:21;9.00;;;4.13;;
12433;SDS011;6281;49.038;8.372;2024-02-16T02:10:49;8.03;;;4.20;;
12433;SDS011;6281;49.038;8.372;2024-02-16T02:13:17;5.37;;;3.77;;
12433;SDS011;6281;49.038;8.372;2024-02-16T02:15:44;7.77;;;4.37;;
12433;SDS011;6281;49.038;8.372;2024-02-16T02:18:11;7.13;;;4.20;;
12433;SDS011;6281;49.038;8.372;2024-02-16T02:20:38;5.13;;;3.93;;
12433;SDS011;6281;49.038;8.372;2024-02-16T02:23:06;7.33;;;3.90;;
12433;SDS011;6281;49.038;8.372;2024-02-16T02:25:33;4.97;;;4.10;;
12433;SDS011;6281;49.038;8.372;2024-02-16T02:28:01;5.93;;;3.70;;
12433;SDS011;6281;49.038;8.372;2024-02-16T02:30:29;8.73;;;3.83;;
12433;SDS011;6281;49.038;8.372;2024-02-16T02:32:56;6.40;;;4.60;;
12433;SDS011;6281;49.038;8.372;2024-02-16T02:35:22;6.57;;;3.90;;
12433;SDS011;6281;49.038;8.372;2024-02-16T02:37:49;5.13;;;3.97;;
12433;SDS011;6281;49.038;8.372;2024-02-16T02:40:18;6.77;;;4.10;;
12433;SDS011;6281;49.038;8.372;2024-02-16T02:42:45;6.43;;;4.40;;
12433;SDS011;6281;49.038;8.372;2024-02-16T02:45:12;8.93;;;3.87;;
12433;SDS011;6281;49.038;8.372;2024-02-16T02:47:39;5.83;;;3.77;;
12433;SDS011;6281;49.038;8.372;2024-02-16T02:50:06;7.97;;;3.83;;
12433;SDS011;6281;49.038;8.372;2024-02-16T02:52:33;7.80;;;4.03;;
12433;SDS011;6281;49.038;8.372;2024-02-16T02:55:00;6.63;;;3.90;;
12433;SDS011;6281;49.038;8.372;2024-02-16T02:57:28;7.97;;;4.00;;
12433;SDS011;6281;49.038;8.372;2024-02-16T03:00:02;5.87;;;3.53;;
12433;SDS011;6281;49.038;8.372;2024-02-16T03:02:32;6.37;;;4.10;;
12433;SDS011;6281;49.038;8.372;2024-02-16T03:04:59;4.83;;;3.80;;
12433;SDS011;6281;49.038;8.372;2024-02-16T03:07:26;8.03;;;3.93;;
12433;SDS011;6281;49.038;8.372;2024-02-16T03:09:53;6.63;;;3.73;;
12433;SDS011;6281;49.038;8.372;2024-02-16T03:12:20;6.63;;;4.20;;
12433;SDS011;6281;49.038;8.372;2024-02-16T03:14:48;5.57;;;3.73;;
12433;SDS011;6281;49.038;8.372;2024-02-16T03:17:15;5.17;;;3.53;;
12433;SDS011;6281;49.038;8.372;2024-02-16T03:19:42;6.73;;;3.80;;
12433;SDS011;6281;49.038;8.372;2024-02-16T03:22:09;5.47;;;3.47;;
12433;SDS011;6281;49.038;8.372;2024-02-16T03:24:36;7.00;;;3.80;;
12433;SDS011;6281;49.038;8.372;2024-02-16T03:27:03;5.60;;;3.50;;
12433;SDS011;6281;49.038;8.372;2024-02-16T03:29:30;6.10;;;4.03;;
12433;SDS011;6281;49.038;8.372;2024-02-16T03:31:58;6.13;;;3.63;;
12433;SDS011;6281;49.038;8.372;2024-02-16T03:34:25;7.80;;;3.60;;
12433;SDS011;6281;49.038;8.372;2024-02-16T03:36:52;4.87;;;3.77;;
12433;SDS011;6281;49.038;8.372;2024-02-16T03:39:19;5.77;;;3.70;;
12433;SDS011;6281;49.038;8.372;2024-02-16T03:41:47;4.53;;;3.80;;
12433;SDS011;6281;49.038;8.372;2024-02-16T03:44:14;7.23;;;3.80;;
12433;SDS011;6281;49.038;8.372;2024-02-16T03:46:42;5.47;;;3.37;;
12433;SDS011;6281;49.038;8.372;2024-02-16T03:49:10;5.43;;;3.70;;
12433;SDS011;6281;49.038;8.372;2024-02-16T03:51:37;4.80;;;3.50;;
12433;SDS011;6281;49.038;8.372;2024-02-16T03:54:04;6.80;;;3.70;;
12433;SDS011;6281;49.038;8.372;2024-02-16T03:56:31;5.70;;;3.97;;
12433;SDS011;6281;49.038;8.372;2024-02-16T03:58:59;4.43;;;3.30;;
12433;SDS011;6281;49.038;8.372;2024-02-16T04:01:26;5.90;;;3.67;;
12433;SDS011;6281;49.038;8.372;2024-02-16T04:03:53;9.60;;;3.90;;
12433;SDS011;6281;49.038;8.372;2024-02-16T04:06:21;5.13;;;4.20;;
12433;SDS011;6281;49.038;8.372;2024-02-16T04:08:48;3.87;;;3.30;;
12433;SDS011;6281;49.038;8.372;2024-02-16T04:11:15;8.00;;;3.97;;
12433;SDS011;6281;49.038;8.372;2024-02-16T04:13:42;5.57;;;3.47;;
12433;SDS011;6281;49.038;8.372;2024-02-16T04:16:09;7.00;;;3.73;;
12433;SDS011;6281;49.038;8.372;2024-02-16T04:18:36;7.40;;;5.10;;
12433;SDS011;6281;49.038;8.372;2024-02-16T04:21:04;5.47;;;3.50;;
12433;SDS011;6281;49.038;8.372;2024-02-16T04:23:33;4.87;;;3.50;;
12433;SDS011;6281;49.038;8.372;2024-02-16T04:25:59;5.20;;;3.57;;
12433;SDS011;6281;49.038;8.372;2024-02-16T04:28:27;3.50;;;3.20;;
12433;SDS011;6281;49.038;8.372;2024-02-16T04:30:54;6.10;;;3.40;;
12433;SDS011;6281;49.038;8.372;2024-02-16T04:33:21;4.97;;;3.30;;
12433;SDS011;6281;49.038;8.372;2024-02-16T04:35:48;4.67;;;3.77;;
12433;SDS011;6281;49.038;8.372;2024-02-16T04:38:15;5.30;;;3.27;;
12433;SDS011;6281;49.038;8.372;2024-02-16T04:40:44;6.00;;;3.73;;
12433;SDS011;6281;49.038;8.372;2024-02-16T04:43:11;5.13;;;3.57;;
12433;SDS011;6281;49.038;8.372;2024-02-16T04:45:38;10.97;;;3.67;;
12433;SDS011;6281;49.038;8.372;2024-02-16T04:48:06;6.33;;;3.80;;
12433;SDS011;6281;49.038;8.372;2024-02-16T04:50:34;5.37;;;3.30;;
12433;SDS011;6281;49.038;8.372;2024-02-16T04:53:01;7.33;;;3.73;;
12433;SDS011;6281;49.038;8.372;2024-02-16T04:55:28;8.27;;;4.13;;
12433;SDS011;6281;49.038;8.372;2024-02-16T04:57:57;6.73;;;4.23;;
12433;SDS011;6281;49.038;8.372;2024-02-16T05:00:24;5.40;;;3.90;;
12433;SDS011;6281;49.038;8.372;2024-02-16T05:02:52;6.40;;;4.30;;
12433;SDS011;6281;49.038;8.372;2024-02-16T05:05:19;5.77;;;3.93;;
12433;SDS011;6281;49.038;8.372;2024-02-16T05:07:48;8.70;;;4.30;;
12433;SDS011;6281;49.038;8.372;2024-02-16T05:10:16;7.20;;;3.93;;
12433;SDS011;6281;49.038;8.372;2024-02-16T05:12:44;5.77;;;3.87;;
12433;SDS011;6281;49.038;8.372;2024-02-16T05:15:13;4.67;;;3.90;;
12433;SDS011;6281;49.038;8.372;2024-02-16T05:17:40;6.97;;;4.07;;
12433;SDS011;6281;49.038;8.372;2024-02-16T05:20:09;8.07;;;3.97;;
12433;SDS011;6281;49.038;8.372;2024-02-16T05:22:40;5.40;;;3.83;;
12433;SDS011;6281;49.038;8.372;2024-02-16T05:25:08;6.33;;;3.50;;
12433;SDS011;6281;49.038;8.372;2024-02-16T05:27:36;5.20;;;3.37;;
12433;SDS011;6281;49.038;8.372;2024-02-16T05:30:04;6.03;;;3.67;;
12433;SDS011;6281;49.038;8.372;2024-02-16T05:32:34;4.33;;;3.20;;
12433;SDS011;6281;49.038;8.372;2024-02-16T05:35:02;4.83;;;3.70;;
12433;SDS011;6281;49.038;8.372;2024-02-16T05:37:36;6.40;;;3.40;;
12433;SDS011;6281;49.038;8.372;2024-02-16T05:40:06;7.10;;;4.03;;
12433;SDS011;6281;49.038;8.372;2024-02-16T05:42:44;5.03;;;3.73;;
12433;SDS011;6281;49.038;8.372;2024-02-16T05:45:12;8.30;;;3.90;;
12433;SDS011;6281;49.038;8.372;2024-02-16T05:47:41;7.00;;;4.20;;
12433;SDS011;6281;49.038;8.372;2024-02-16T05:50:08;5.63;;;4.00;;
12433;SDS011;6281;49.038;8.372;2024-02-16T05:52:37;5.90;;;3.87;;
12433;SDS011;6281;49.038;8.372;2024-02-16T05:55:04;5.20;;;4.07;;
12433;SDS011;6281;49.038;8.372;2024-02-16T05:57:32;7.20;;;3.80;;
12433;SDS011;6281;49.038;8.372;2024-02-16T05:59:59;7.00;;;3.80;;
12433;SDS011;6281;49.038;8.372;2024-02-16T06:02:29;5.03;;;3.97;;
12433;SDS011;6281;49.038;8.372;2024-02-16T06:04:57;6.10;;;3.80;;
12433;SDS011;6281;49.038;8.372;2024-02-16T06:07:24;5.70;;;4.13;;
12433;SDS011;6281;49.038;8.372;2024-02-16T06:09:51;6.63;;;3.67;;
12433;SDS011;6281;49.038;8.372;2024-02-16T06:12:19;7.80;;;4.30;;
12433;SDS011;6281;49.038;8.372;2024-02-16T06:14:46;5.87;;;3.73;;
12433;SDS011;6281;49.038;8.372;2024-02-16T06:17:14;5.27;;;4.20;;
12433;SDS011;6281;49.038;8.372;2024-02-16T06:19:41;5.77;;;4.00;;
12433;SDS011;6281;49.038;8.372;2024-02-16T06:22:10;6.20;;;3.73;;
12433;SDS011;6281;49.038;8.372;2024-02-16T06:24:37;5.83;;;3.53;;
12433;SDS011;6281;49.038;8.372;2024-02-16T06:27:04;5.83;;;3.83;;
12433;SDS011;6281;49.038;8.372;2024-02-16T06:29:33;8.63;;;3.93;;
12433;SDS011;6281;49.038;8.372;2024-02-16T06:32:00;6.00;;;3.30;;
12433;SDS011;6281;49.038;8.372;2024-02-16T06:34:27;7.67;;;3.90;;
12433;SDS011;6281;49.038;8.372;2024-02-16T06:36:55;9.40;;;3.60;;
12433;SDS011;6281;49.038;8.372;2024-02-16T06:39:24;5.20;;;3.53;;
12433;SDS011;6281;49.038;8.372;2024-02-16T06:41:51;4.83;;;3.73;;
12433;SDS011;6281;49.038;8.372;2024-02-16T06:44:18;5.43;;;3.57;;
12433;SDS011;6281;49.038;8.372;2024-02-16T06:46:44;7.97;;;4.10;;
12433;SDS011;6281;49.038;8.372;2024-02-16T06:49:11;6.30;;;3.70;;
12433;SDS011;6281;49.038;8.372;2024-02-16T06:51:38;5.13;;;3.53;;
12433;SDS011;6281;49.038;8.372;2024-02-16T06:54:05;4.50;;;3.43;;
12433;SDS011;6281;49.038;8.372;2024-02-16T06:56:33;6.17;;;3.73;;
12433;SDS011;6281;49.038;8.372;2024-02-16T06:59:00;6.87;;;3.50;;
12433;SDS011;6281;49.038;8.372;2024-02-16T07:01:28;5.57;;;3.80;;
12433;SDS011;6281;49.038;8.372;2024-02-16T07:03:55;6.97;;;3.77;;
12433;SDS011;6281;49.038;8.372;2024-02-16T07:06:22;6.37;;;3.83;;
12433;SDS011;6281;49.038;8.372;2024-02-16T07:08:48;4.77;;;3.90;;
12433;SDS011;6281;49.038;8.372;2024-02-16T07:11:15;4.83;;;3.43;;
12433;SDS011;6281;49.038;8.372;2024-02-16T07:13:45;5.23;;;3.50;;
12433;SDS011;6281;49.038;8.372;2024-02-16T07:16:12;4.90;;;3.67;;
12433;SDS011;6281;49.038;8.372;2024-02-16T07:18:39;6.67;;;3.67;;
12433;SDS011;6281;49.038;8.372;2024-02-16T07:21:07;5.97;;;3.87;;
12433;SDS011;6281;49.038;8.372;2024-02-16T07:23:34;6.67;;;3.50;;
12433;SDS011;6281;49.038;8.372;2024-02-16T07:26:01;7.57;;;3.97;;
12433;SDS011;6281;49.038;8.372;2024-02-16T07:28:28;5.73;;;3.10;;
12433;SDS011;6281;49.038;8.372;2024-02-16T07:30:57;7.30;;;3.73;;
12433;SDS011;6281;49.038;8.372;2024-02-16T07:33:24;4.17;;;3.20;;
12433;SDS011;6281;49.038;8.372;2024-02-16T07:35:53;6.70;;;4.00;;
12433;SDS011;6281;49.038;8.372;2024-02-16T07:38:20;4.80;;;3.73;;
12433;SDS011;6281;49.038;8.372;2024-02-16T07:40:47;6.93;;;3.67;;
12433;SDS011;6281;49.038;8.372;2024-02-16T07:43:15;6.60;;;4.37;;
12433;SDS011;6281;49.038;8.372;2024-02-16T07:45:42;6.27;;;3.83;;
12433;SDS011;6281;49.038;8.372;2024-02-16T07:48:11;6.00;;;3.83;;
12433;SDS011;6281;49.038;8.372;2024-02-16T07:50:37;5.80;;;3.43;;
12433;SDS011;6281;49.038;8.372;2024-02-16T07:53:04;5.67;;;3.60;;
12433;SDS011;6281;49.038;8.372;2024-02-16T07:55:31;5.30;;;4.20;;
12433;SDS011;6281;49.038;8.372;2024-02-16T07:57:58;10.30;;;4.60;;
12433;SDS011;6281;49.038;8.372;2024-02-16T08:00:25;7.70;;;4.50;;
12433;SDS011;6281;49.038;8.372;2024-02-16T08:02:53;6.80;;;4.80;;
12433;SDS011;6281;49.038;8.372;2024-02-16T08:05:21;8.13;;;4.63;;
12433;SDS011;6281;49.038;8.372;2024-02-16T08:07:49;7.43;;;4.70;;
12433;SDS011;6281;49.038;8.372;2024-02-16T08:10:18;7.00;;;4.70;;
12433;SDS011;6281;49.038;8.372;2024-02-16T08:12:46;6.57;;;4.33;;
12433;SDS011;6281;49.038;8.372;2024-02-16T08:15:13;8.83;;;4.83;;
12433;SDS011;6281;49.038;8.372;2024-02-16T08:17:40;8.70;;;5.10;;
12433;SDS011;6281;49.038;8.372;2024-02-16T08:20:08;6.07;;;4.20;;
12433;SDS011;6281;49.038;8.372;2024-02-16T08:22:37;9.80;;;4.53;;
12433;SDS011;6281;49.038;8.372;2024-02-16T08:25:04;11.03;;;4.60;;
12433;SDS011;6281;49.038;8.372;2024-02-16T08:27:32;7.20;;;4.80;;
12433;SDS011;6281;49.038;8.372;2024-02-16T08:29:59;5.67;;;4.43;;
12433;SDS011;6281;49.038;8.372;2024-02-16T08:32:27;9.23;;;4.67;;
12433;SDS011;6281;49.038;8.372;2024-02-16T08:34:54;8.60;;;4.33;;
12433;SDS011;6281;49.038;8.372;2024-02-16T08:37:23;9.37;;;4.80;;
12433;SDS011;6281;49.038;8.372;2024-02-16T08:39:52;9.20;;;4.63;;
12433;SDS011;6281;49.038;8.372;2024-02-16T08:42:19;11.60;;;5.10;;
12433;SDS011;6281;49.038;8.372;2024-02-16T08:44:47;7.03;;;5.30;;
12433;SDS011;6281;49.038;8.372;2024-02-16T08:47:14;7.20;;;5.40;;
12433;SDS011;6281;49.038;8.372;2024-02-16T08:49:41;12.47;;;5.40;;
12433;SDS011;6281;49.038;8.372;2024-02-16T08:52:08;7.73;;;4.97;;
12433;SDS011;6281;49.038;8.372;2024-02-16T08:54:35;9.83;;;5.20;;
12433;SDS011;6281;49.038;8.372;2024-02-16T08:57:04;7.40;;;5.27;;
12433;SDS011;6281;49.038;8.372;2024-02-16T08:59:31;9.20;;;5.07;;
12433;SDS011;6281;49.038;8.372;2024-02-16T09:01:59;9.03;;;5.30;;
12433;SDS011;6281;49.038;8.372;2024-02-16T09:04:26;6.47;;;4.70;;
12433;SDS011;6281;49.038;8.372;2024-02-16T09:06:53;10.97;;;5.03;;
12433;SDS011;6281;49.038;8.372;2024-02-16T09:09:20;7.97;;;4.77;;
12433;SDS011;6281;49.038;8.372;2024-02-16T09:11:47;10.60;;;5.20;;
12433;SDS011;6281;49.038;8.372;2024-02-16T09:14:16;8.03;;;4.63;;
12433;SDS011;6281;49.038;8.372;2024-02-16T09:16:43;7.53;;;4.63;;
12433;SDS011;6281;49.038;8.372;2024-02-16T09:19:10;9.97;;;4.90;;
12433;SDS011;6281;49.038;8.372;2024-02-16T09:21:37;7.27;;;4.50;;
12433;SDS011;6281;49.038;8.372;2024-02-16T09:24:04;7.80;;;4.80;;
12433;SDS011;6281;49.038;8.372;2024-02-16T09:26:35;6.00;;;4.33;;
12433;SDS011;6281;49.038;8.372;2024-02-16T09:29:02;6.23;;;4.47;;
12433;SDS011;6281;49.038;8.372;2024-02-16T09:31:30;7.33;;;4.63;;
12433;SDS011;6281;49.038;8.372;2024-02-16T09:33:57;7.30;;;4.33;;
12433;SDS011;6281;49.038;8.372;2024-02-16T09:36:24;5.57;;;4.03;;
12433;SDS011;6281;49.038;8.372;2024-02-16T09:38:51;6.43;;;5.13;;
12433;SDS011;6281;49.038;8.372;2024-02-16T09:41:18;7.97;;;4.67;;
12433;SDS011;6281;49.038;8.372;2024-02-16T09:43:45;7.37;;;4.70;;
12433;SDS011;6281;49.038;8.372;2024-02-16T09:46:12;9.40;;;5.30;;
12433;SDS011;6281;49.038;8.372;2024-02-16T09:48:43;7.07;;;4.80;;
12433;SDS011;6281;49.038;8.372;2024-02-16T09:51:14;6.67;;;4.40;;
12433;SDS011;6281;49.038;8.372;2024-02-16T09:53:41;6.17;;;4.37;;
12433;SDS011;6281;49.038;8.372;2024-02-16T09:56:08;9.47;;;4.70;;
12433;SDS011;6281;49.038;8.372;2024-02-16T09:58:35;7.17;;;4.30;;
12433;SDS011;6281;49.038;8.372;2024-02-16T10:01:02;9.10;;;4.60;;
12433;SDS011;6281;49.038;8.372;2024-02-16T10:03:30;6.40;;;4.50;;
12433;SDS011;6281;49.038;8.372;2024-02-16T10:06:06;6.20;;;3.70;;
12433;SDS011;6281;49.038;8.372;2024-02-16T10:08:34;6.43;;;3.90;;
12433;SDS011;6281;49.038;8.372;2024-02-16T10:11:14;7.90;;;4.47;;
12433;SDS011;6281;49.038;8.372;2024-02-16T10:13:53;6.77;;;3.93;;
12433;SDS011;6281;49.038;8.372;2024-02-16T10:16:21;5.90;;;4.30;;
12433;SDS011;6281;49.038;8.372;2024-02-16T10:18:48;5.97;;;3.80;;
12433;SDS011;6281;49.038;8.372;2024-02-16T10:21:24;8.43;;;4.47;;
12433;SDS011;6281;49.038;8.372;2024-02-16T10:23:59;6.70;;;3.70;;
12433;SDS011;6281;49.038;8.372;2024-02-16T10:26:27;7.60;;;3.50;;
12433;SDS011;6281;49.038;8.372;2024-02-16T10:28:55;9.37;;;3.67;;
12433;SDS011;6281;49.038;8.372;2024-02-16T10:31:23;7.80;;;3.23;;
12433;SDS011;6281;49.038;8.372;2024-02-16T10:33:57;5.97;;;3.13;;
12433;SDS011;6281;49.038;8.372;2024-02-16T10:36:28;6.83;;;3.07;;
12433;SDS011;6281;49.038;8.372;2024-02-16T10:38:57;4.70;;;2.90;;
12433;SDS011;6281;49.038;8.372;2024-02-16T10:41:27;4.20;;;3.03;;
12433;SDS011;6281;49.038;8.372;2024-02-16T10:43:55;6.07;;;3.13;;
12433;SDS011;6281;49.038;8.372;2024-02-16T10:46:22;4.20;;;2.90;;
12433;SDS011;6281;49.038;8.372;2024-02-16T10:48:50;4.50;;;3.03;;
12433;SDS011;6281;49.038;8.372;2024-02-16T10:51:18;5.53;;;2.60;;
12433;SDS011;6281;49.038;8.372;2024-02-16T10:53:51;5.60;;;2.90;;
12433;SDS011;6281;49.038;8.372;2024-02-16T10:56:28;6.97;;;3.10;;
12433;SDS011;6281;49.038;8.372;2024-02-16T10:59:02;4.90;;;2.83;;
12433;SDS011;6281;49.038;8.372;2024-02-16T11:01:36;4.13;;;2.43;;
12433;SDS011;6281;49.038;8.372;2024-02-16T11:04:05;5.37;;;2.77;;
12433;SDS011;6281;49.038;8.372;2024-02-16T11:06:44;12.50;;;2.50;;
12433;SDS011;6281;49.038;8.372;2024-02-16T11:09:28;4.33;;;2.70;;
12433;SDS011;6281;49.038;8.372;2024-02-16T11:11:58;8.87;;;2.57;;
12433;SDS011;6281;49.038;8.372;2024-02-16T11:14:33;7.43;;;2.97;;
12433;SDS011;6281;49.038;8.372;2024-02-16T11:17:01;5.63;;;2.30;;
12433;SDS011;6281;49.038;8.372;2024-02-16T11:19:33;2.83;;;2.00;;
12433;SDS011;6281;49.038;8.372;2024-02-16T11:22:02;4.33;;;2.50;;
12433;SDS011;6281;49.038;8.372;2024-02-16T11:24:34;6.07;;;2.50;;
12433;SDS011;6281;49.038;8.372;2024-02-16T11:27:02;5.97;;;2.57;;
12433;SDS011;6281;49.038;8.372;2024-02-16T11:29:30;5.20;;;2.70;;
12433;SDS011;6281;49.038;8.372;2024-02-16T11:31:59;4.53;;;2.53;;
12433;SDS011;6281;49.038;8.372;2024-02-16T11:34:26;5.13;;;2.37;;
12433;SDS011;6281;49.038;8.372;2024-02-16T11:36:54;4.17;;;2.37;;
12433;SDS011;6281;49.038;8.372;2024-02-16T11:39:22;4.47;;;2.70;;
12433;SDS011;6281;49.038;8.372;2024-02-16T11:42:00;2.90;;;1.90;;
12433;SDS011;6281;49.038;8.372;2024-02-16T11:44:28;6.57;;;2.20;;
12433;SDS011;6281;49.038;8.372;2024-02-16T11:46:57;3.33;;;1.73;;
12433;SDS011;6281;49.038;8.372;2024-02-16T11:49:24;6.83;;;1.83;;
12433;SDS011;6281;49.038;8.372;2024-02-16T11:51:51;3.73;;;2.00;;
12433;SDS011;6281;49.038;8.372;2024-02-16T11:54:18;3.83;;;1.93;;
12433;SDS011;6281;49.038;8.372;2024-02-16T11:56:45;3.30;;;2.17;;
12433;SDS011;6281;49.038;8.372;2024-02-16T11:59:17;5.50;;;1.93;;
12433;SDS011;6281;49.038;8.372;2024-02-16T12:01:48;3.73;;;2.03;;
12433;SDS011;6281;49.038;8.372;2024-02-16T12:04:19;3.50;;;1.93;;
12433;SDS011;6281;49.038;8.372;2024-02-16T12:06:47;9.87;;;2.73;;
12433;SDS011;6281;49.038;8.372;2024-02-16T12:09:16;5.10;;;2.50;;
12433;SDS011;6281;49.038;8.372;2024-02-16T12:11:43;5.77;;;2.10;;
12433;SDS011;6281;49.038;8.372;2024-02-16T12:14:10;3.37;;;2.00;;
12433;SDS011;6281;49.038;8.372;2024-02-16T12:16:39;5.73;;;2.93;;
12433;SDS011;6281;49.038;8.372;2024-02-16T12:19:06;6.13;;;2.37;;
12433;SDS011;6281;49.038;8.372;2024-02-16T12:21:33;4.57;;;2.10;;
12433;SDS011;6281;49.038;8.372;2024-02-16T12:24:00;4.27;;;1.70;;
12433;SDS011;6281;49.038;8.372;2024-02-16T12:26:27;5.20;;;1.93;;
12433;SDS011;6281;49.038;8.372;2024-02-16T12:28:54;4.00;;;2.20;;
12433;SDS011;6281;49.038;8.372;2024-02-16T12:31:21;5.63;;;2.23;;
12433;SDS011;6281;49.038;8.372;2024-02-16T12:33:49;3.40;;;1.70;;
12433;SDS011;6281;49.038;8.372;2024-02-16T12:36:16;5.37;;;1.83;;
12433;SDS011;6281;49.038;8.372;2024-02-16T12:38:43;3.00;;;1.70;;
12433;SDS011;6281;49.038;8.372;2024-02-16T12:41:10;3.80;;;1.90;;
12433;SDS011;6281;49.038;8.372;2024-02-16T12:43:37;4.77;;;1.87;;
12433;SDS011;6281;49.038;8.372;2024-02-16T12:46:05;3.80;;;1.87;;
12433;SDS011;6281;49.038;8.372;2024-02-16T12:48:32;2.70;;;1.80;;
12433;SDS011;6281;49.038;8.372;2024-02-16T12:51:00;5.13;;;2.00;;
12433;SDS011;6281;49.038;8.372;2024-02-16T12:53:27;3.70;;;2.60;;
12433;SDS011;6281;49.038;8.372;2024-02-16T12:56:00;3.80;;;2.63;;
12433;SDS011;6281;49.038;8.372;2024-02-16T12:58:27;5.73;;;2.00;;
12433;SDS011;6281;49.038;8.372;2024-02-16T13:00:55;2.97;;;2.10;;
12433;SDS011;6281;49.038;8.372;2024-02-16T13:03:22;2.57;;;1.90;;
12433;SDS011;6281;49.038;8.372;2024-02-16T13:05:49;3.13;;;1.70;;
12433;SDS011;6281;49.038;8.372;2024-02-16T13:08:17;4.80;;;1.50;;
12433;SDS011;6281;49.038;8.372;2024-02-16T13:10:44;3.37;;;1.47;;
12433;SDS011;6281;49.038;8.372;2024-02-16T13:13:11;4.37;;;1.80;;
12433;SDS011;6281;49.038;8.372;2024-02-16T13:15:38;4.93;;;1.60;;
12433;SDS011;6281;49.038;8.372;2024-02-16T13:18:05;2.93;;;1.23;;
12433;SDS011;6281;49.038;8.372;2024-02-16T13:20:32;3.17;;;1.57;;
12433;SDS011;6281;49.038;8.372;2024-02-16T13:23:00;5.90;;;2.87;;
12433;SDS011;6281;49.038;8.372;2024-02-16T13:25:28;4.07;;;2.13;;
12433;SDS011;6281;49.038;8.372;2024-02-16T13:27:55;4.43;;;1.87;;
12433;SDS011;6281;49.038;8.372;2024-02-16T13:30:22;4.37;;;1.57;;
12433;SDS011;6281;49.038;8.372;2024-02-16T13:32:49;2.43;;;1.47;;
12433;SDS011;6281;49.038;8.372;2024-02-16T13:35:16;2.50;;;1.90;;
12433;SDS011;6281;49.038;8.372;2024-02-16T13:37:43;3.33;;;1.87;;
12433;SDS011;6281;49.038;8.372;2024-02-16T13:40:10;4.73;;;1.63;;
12433;SDS011;6281;49.038;8.372;2024-02-16T13:42:39;3.10;;;1.67;;
12433;SDS011;6281;49.038;8.372;2024-02-16T13:45:07;4.17;;;1.60;;
12433;SDS011;6281;49.038;8.372;2024-02-16T13:47:35;2.33;;;1.40;;
12433;SDS011;6281;49.038;8.372;2024-02-16T13:50:02;2.53;;;1.63;;
12433;SDS011;6281;49.038;8.372;2024-02-16T13:52:29;3.00;;;1.50;;
12433;SDS011;6281;49.038;8.372;2024-02-16T13:54:56;2.83;;;1.37;;
12433;SDS011;6281;49.038;8.372;2024-02-16T13:57:23;4.80;;;1.70;;
12433;SDS011;6281;49.038;8.372;2024-02-16T13:59:51;2.83;;;1.87;;
12433;SDS011;6281;49.038;8.372;2024-02-16T14:02:18;4.93;;;2.00;;
12433;SDS011;6281;49.038;8.372;2024-02-16T14:04:46;2.73;;;1.40;;
12433;SDS011;6281;49.038;8.372;2024-02-16T14:07:13;4.07;;;1.53;;
12433;SDS011;6281;49.038;8.372;2024-02-16T14:09:40;3.73;;;1.30;;
12433;SDS011;6281;49.038;8.372;2024-02-16T14:12:07;3.80;;;1.43;;
12433;SDS011;6281;49.038;8.372;2024-02-16T14:14:37;6.13;;;1.23;;
12433;SDS011;6281;49.038;8.372;2024-02-16T14:17:05;4.03;;;1.47;;
12433;SDS011;6281;49.038;8.372;2024-02-16T14:19:32;3.00;;;1.10;;
12433;SDS011;6281;49.038;8.372;2024-02-16T14:22:02;2.77;;;1.37;;
12433;SDS011;6281;49.038;8.372;2024-02-16T14:24:32;4.90;;;1.03;;
12433;SDS011;6281;49.038;8.372;2024-02-16T14:26:59;1.80;;;1.27;;
12433;SDS011;6281;49.038;8.372;2024-02-16T14:29:26;2.00;;;1.23;;
12433;SDS011;6281;49.038;8.372;2024-02-16T14:31:54;3.20;;;1.23;;
12433;SDS011;6281;49.038;8.372;2024-02-16T14:34:22;1.50;;;1.03;;
12433;SDS011;6281;49.038;8.372;2024-02-16T14:36:49;3.83;;;1.23;;
12433;SDS011;6281;49.038;8.372;2024-02-16T14:39:16;2.63;;;1.37;;
12433;SDS011;6281;49.038;8.372;2024-02-16T14:41:43;2.43;;;1.30;;
12433;SDS011;6281;49.038;8.372;2024-02-16T14:44:10;3.20;;;1.63;;
12433;SDS011;6281;49.038;8.372;2024-02-16T14:46:37;2.83;;;1.37;;
12433;SDS011;6281;49.038;8.372;2024-02-16T14:49:04;2.20;;;1.40;;
12433;SDS011;6281;49.038;8.372;2024-02-16T14:51:34;3.43;;;1.27;;
12433;SDS011;6281;49.038;8.372;2024-02-16T14:54:07;3.47;;;1.20;;
12433;SDS011;6281;49.038;8.372;2024-02-16T14:56:38;3.30;;;1.57;;
12433;SDS011;6281;49.038;8.372;2024-02-16T14:59:05;1.97;;;1.40;;
12433;SDS011;6281;49.038;8.372;2024-02-16T15:01:32;5.47;;;1.97;;
12433;SDS011;6281;49.038;8.372;2024-02-16T15:03:59;4.20;;;1.17;;